sensor_id;sensor_type;location;lat;lon;timestamp;pressure;altitude;pressure_sealevel;temperature;humidity
2711;BME280;20721;47.402;8.550;2022-09-27T00:00:50;94677;;;13.39;59.89
2711;BME280;20721;47.402;8.550;2022-09-27T00:01:50;94678;;;13.43;59.96
2711;BME280;20721;47.402;8.550;2022-09-27T00:02:50;94671;;;13.41;59.37
2711;BME280;20721;47.402;8.550;2022-09-27T00:03:53;94670;;;13.31;59.80
2711;BME280;20721;47.402;8.550;2022-09-27T00:05:59;94672;;;13.30;60.25
2711;BME280;20721;47.402;8.550;2022-09-27T00:06:50;94674;;;13.32;59.98
2711;BME280;20721;47.402;8.550;2022-09-27T00:07:50;94668;;;13.34;59.84
2711;BME280;20721;47.402;8.550;2022-09-27T00:08:50;94676;;;13.32;60.12
2711;BME280;20721;47.402;8.550;2022-09-27T00:09:50;94671;;;13.36;60.17
2711;BME280;20721;47.402;8.550;2022-09-27T00:10:56;94662;;;13.32;60.01
2711;BME280;20721;47.402;8.550;2022-09-27T00:11:50;94666;;;13.29;60.12
2711;BME280;20721;47.402;8.550;2022-09-27T00:12:50;94666;;;13.26;60.46
2711;BME280;20721;47.402;8.550;2022-09-27T00:13:50;94669;;;13.16;60.46
2711;BME280;20721;47.402;8.550;2022-09-27T00:14:50;94672;;;13.12;60.80
2711;BME280;20721;47.402;8.550;2022-09-27T00:15:54;94666;;;13.09;60.66
2711;BME280;20721;47.402;8.550;2022-09-27T00:16:50;94664;;;13.02;60.99
2711;BME280;20721;47.402;8.550;2022-09-27T00:17:50;94668;;;13.04;60.85
2711;BME280;20721;47.402;8.550;2022-09-27T00:18:50;94667;;;13.06;60.92
2711;BME280;20721;47.402;8.550;2022-09-27T00:19:50;94675;;;13.09;61.03
2711;BME280;20721;47.402;8.550;2022-09-27T00:20:50;94656;;;13.13;60.93
2711;BME280;20721;47.402;8.550;2022-09-27T00:21:50;94661;;;13.16;60.78
2711;BME280;20721;47.402;8.550;2022-09-27T00:22:50;94661;;;13.10;60.92
2711;BME280;20721;47.402;8.550;2022-09-27T00:23:50;94662;;;13.04;60.89
2711;BME280;20721;47.402;8.550;2022-09-27T00:24:50;94657;;;13.01;60.91
2711;BME280;20721;47.402;8.550;2022-09-27T00:25:53;94655;;;13.05;61.14
2711;BME280;20721;47.402;8.550;2022-09-27T00:26:50;94661;;;13.09;61.10
2711;BME280;20721;47.402;8.550;2022-09-27T00:29:50;94666;;;13.13;61.28
2711;BME280;20721;47.402;8.550;2022-09-27T00:31:50;94655;;;13.10;60.58
2711;BME280;20721;47.402;8.550;2022-09-27T00:32:51;94654;;;13.07;60.96
2711;BME280;20721;47.402;8.550;2022-09-27T00:33:51;94657;;;13.09;61.24
2711;BME280;20721;47.402;8.550;2022-09-27T00:34:50;94662;;;12.99;60.99
2711;BME280;20721;47.402;8.550;2022-09-27T00:35:50;94665;;;13.00;61.26
2711;BME280;20721;47.402;8.550;2022-09-27T00:36:50;94661;;;12.94;60.75
2711;BME280;20721;47.402;8.550;2022-09-27T00:38:50;94663;;;12.86;61.50
2711;BME280;20721;47.402;8.550;2022-09-27T00:39:50;94669;;;12.90;61.57
2711;BME280;20721;47.402;8.550;2022-09-27T00:40:50;94660;;;12.84;61.61
2711;BME280;20721;47.402;8.550;2022-09-27T00:43:51;94656;;;12.91;61.65
2711;BME280;20721;47.402;8.550;2022-09-27T00:45:51;94649;;;13.08;61.41
2711;BME280;20721;47.402;8.550;2022-09-27T00:46:52;94650;;;13.16;60.90
2711;BME280;20721;47.402;8.550;2022-09-27T00:47:58;94649;;;13.23;60.68
2711;BME280;20721;47.402;8.550;2022-09-27T00:48:51;94652;;;13.30;60.54
2711;BME280;20721;47.402;8.550;2022-09-27T00:49:53;94656;;;13.35;60.13
2711;BME280;20721;47.402;8.550;2022-09-27T00:50:50;94657;;;13.39;59.98
2711;BME280;20721;47.402;8.550;2022-09-27T00:51:52;94663;;;13.42;59.94
2711;BME280;20721;47.402;8.550;2022-09-27T00:53:50;94661;;;13.37;60.01
2711;BME280;20721;47.402;8.550;2022-09-27T00:54:51;94656;;;13.35;60.06
2711;BME280;20721;47.402;8.550;2022-09-27T00:55:53;94661;;;13.38;59.77
2711;BME280;20721;47.402;8.550;2022-09-27T00:56:50;94658;;;13.33;59.61
2711;BME280;20721;47.402;8.550;2022-09-27T00:57:50;94664;;;13.28;59.54
2711;BME280;20721;47.402;8.550;2022-09-27T00:58:51;94662;;;13.06;60.16
2711;BME280;20721;47.402;8.550;2022-09-27T00:59:51;94661;;;13.01;60.35
2711;BME280;20721;47.402;8.550;2022-09-27T01:00:51;94651;;;13.03;60.63
2711;BME280;20721;47.402;8.550;2022-09-27T01:01:50;94658;;;13.08;60.67
2711;BME280;20721;47.402;8.550;2022-09-27T01:02:51;94657;;;13.14;60.51
2711;BME280;20721;47.402;8.550;2022-09-27T01:04:50;94650;;;13.22;60.09
2711;BME280;20721;47.402;8.550;2022-09-27T01:05:50;94649;;;13.23;60.08
2711;BME280;20721;47.402;8.550;2022-09-27T01:06:50;94649;;;13.27;60.00
2711;BME280;20721;47.402;8.550;2022-09-27T01:07:50;94647;;;13.30;59.94
2711;BME280;20721;47.402;8.550;2022-09-27T01:08:50;94650;;;13.32;59.77
2711;BME280;20721;47.402;8.550;2022-09-27T01:09:50;94650;;;13.30;59.88
2711;BME280;20721;47.402;8.550;2022-09-27T01:10:52;94649;;;13.32;59.95
2711;BME280;20721;47.402;8.550;2022-09-27T01:11:53;94644;;;13.31;59.99
2711;BME280;20721;47.402;8.550;2022-09-27T01:12:55;94647;;;13.33;59.89
2711;BME280;20721;47.402;8.550;2022-09-27T01:15:00;94648;;;13.40;59.74
2711;BME280;20721;47.402;8.550;2022-09-27T01:15:52;94651;;;13.44;59.27
2711;BME280;20721;47.402;8.550;2022-09-27T01:18:55;94650;;;13.28;58.94
2711;BME280;20721;47.402;8.550;2022-09-27T01:21:55;94649;;;13.03;59.79
2711;BME280;20721;47.402;8.550;2022-09-27T01:23:57;94643;;;13.00;60.03
2711;BME280;20721;47.402;8.550;2022-09-27T01:24:54;94645;;;13.04;59.93
2711;BME280;20721;47.402;8.550;2022-09-27T01:26:59;94641;;;13.13;60.09
2711;BME280;20721;47.402;8.550;2022-09-27T01:28:03;94634;;;13.17;59.68
2711;BME280;20721;47.402;8.550;2022-09-27T01:32:54;94643;;;13.10;60.01
2711;BME280;20721;47.402;8.550;2022-09-27T01:33:55;94639;;;13.18;59.60
2711;BME280;20721;47.402;8.550;2022-09-27T01:34:57;94644;;;13.23;59.17
2711;BME280;20721;47.402;8.550;2022-09-27T01:37:56;94641;;;13.29;59.45
2711;BME280;20721;47.402;8.550;2022-09-27T01:38:56;94643;;;13.31;59.21
2711;BME280;20721;47.402;8.550;2022-09-27T01:40:56;94642;;;13.24;59.02
2711;BME280;20721;47.402;8.550;2022-09-27T01:41:55;94644;;;13.03;59.22
2711;BME280;20721;47.402;8.550;2022-09-27T01:43:54;94643;;;13.03;59.81
2711;BME280;20721;47.402;8.550;2022-09-27T01:45:53;94640;;;13.10;59.73
2711;BME280;20721;47.402;8.550;2022-09-27T01:46:52;94648;;;13.08;59.76
2711;BME280;20721;47.402;8.550;2022-09-27T01:47:51;94640;;;13.10;59.92
2711;BME280;20721;47.402;8.550;2022-09-27T01:48:50;94644;;;13.15;59.71
2711;BME280;20721;47.402;8.550;2022-09-27T01:50:07;94641;;;13.12;59.26
2711;BME280;20721;47.402;8.550;2022-09-27T01:51:06;94639;;;13.08;59.39
2711;BME280;20721;47.402;8.550;2022-09-27T01:52:52;94639;;;13.11;59.63
2711;BME280;20721;47.402;8.550;2022-09-27T01:53:51;94631;;;13.02;59.79
2711;BME280;20721;47.402;8.550;2022-09-27T01:54:52;94642;;;12.97;60.14
2711;BME280;20721;47.402;8.550;2022-09-27T01:55:50;94638;;;12.91;60.27
2711;BME280;20721;47.402;8.550;2022-09-27T01:56:52;94647;;;12.96;60.64
2711;BME280;20721;47.402;8.550;2022-09-27T01:57:56;94643;;;13.01;60.53
2711;BME280;20721;47.402;8.550;2022-09-27T01:58:53;94648;;;13.02;60.36
2711;BME280;20721;47.402;8.550;2022-09-27T01:59:52;94647;;;13.01;60.46
2711;BME280;20721;47.402;8.550;2022-09-27T02:00:50;94651;;;13.05;60.57
2711;BME280;20721;47.402;8.550;2022-09-27T02:01:50;94652;;;13.13;60.61
2711;BME280;20721;47.402;8.550;2022-09-27T02:03:50;94663;;;13.25;60.62
2711;BME280;20721;47.402;8.550;2022-09-27T02:04:50;94665;;;13.28;60.92
2711;BME280;20721;47.402;8.550;2022-09-27T02:05:53;94665;;;13.32;60.90
2711;BME280;20721;47.402;8.550;2022-09-27T02:06:53;94667;;;13.35;60.98
2711;BME280;20721;47.402;8.550;2022-09-27T02:07:51;94672;;;13.39;61.28
2711;BME280;20721;47.402;8.550;2022-09-27T02:09:51;94667;;;13.47;61.57
2711;BME280;20721;47.402;8.550;2022-09-27T02:10:50;94669;;;13.42;61.56
2711;BME280;20721;47.402;8.550;2022-09-27T02:11:57;94667;;;13.39;61.72
2711;BME280;20721;47.402;8.550;2022-09-27T02:15:55;94671;;;13.24;62.53
2711;BME280;20721;47.402;8.550;2022-09-27T02:16:51;94660;;;13.18;62.68
2711;BME280;20721;47.402;8.550;2022-09-27T02:20:51;94674;;;12.83;63.58
2711;BME280;20721;47.402;8.550;2022-09-27T02:21:55;94678;;;12.84;63.68
2711;BME280;20721;47.402;8.550;2022-09-27T02:23:51;94682;;;12.89;63.90
2711;BME280;20721;47.402;8.550;2022-09-27T02:24:52;94677;;;12.91;63.81
2711;BME280;20721;47.402;8.550;2022-09-27T02:25:54;94678;;;12.95;64.11
2711;BME280;20721;47.402;8.550;2022-09-27T02:26:55;94669;;;13.00;63.79
2711;BME280;20721;47.402;8.550;2022-09-27T02:30:00;94675;;;12.85;63.71
2711;BME280;20721;47.402;8.550;2022-09-27T02:30:50;94672;;;12.84;63.69
2711;BME280;20721;47.402;8.550;2022-09-27T02:31:50;94673;;;12.86;63.73
2711;BME280;20721;47.402;8.550;2022-09-27T02:33:53;94684;;;12.88;63.73
2711;BME280;20721;47.402;8.550;2022-09-27T02:34:50;94672;;;12.84;63.94
2711;BME280;20721;47.402;8.550;2022-09-27T02:35:50;94672;;;12.79;63.95
2711;BME280;20721;47.402;8.550;2022-09-27T02:36:52;94680;;;12.73;63.95
2711;BME280;20721;47.402;8.550;2022-09-27T02:37:50;94675;;;12.64;64.31
2711;BME280;20721;47.402;8.550;2022-09-27T02:38:50;94682;;;12.57;64.42
2711;BME280;20721;47.402;8.550;2022-09-27T02:39:50;94677;;;12.55;64.61
2711;BME280;20721;47.402;8.550;2022-09-27T02:40:50;94679;;;12.57;64.66
2711;BME280;20721;47.402;8.550;2022-09-27T02:41:50;94675;;;12.58;64.82
2711;BME280;20721;47.402;8.550;2022-09-27T02:42:50;94675;;;12.63;64.81
2711;BME280;20721;47.402;8.550;2022-09-27T02:43:52;94680;;;12.64;64.76
2711;BME280;20721;47.402;8.550;2022-09-27T02:45:53;94678;;;12.67;64.63
2711;BME280;20721;47.402;8.550;2022-09-27T02:46:55;94683;;;12.73;64.33
2711;BME280;20721;47.402;8.550;2022-09-27T02:55:53;94688;;;12.82;63.75
2711;BME280;20721;47.402;8.550;2022-09-27T02:57:26;94690;;;12.84;63.80
2711;BME280;20721;47.402;8.550;2022-09-27T02:58:11;94687;;;12.87;63.79
2711;BME280;20721;47.402;8.550;2022-09-27T03:00:53;94691;;;12.88;63.42
2711;BME280;20721;47.402;8.550;2022-09-27T03:03:51;94695;;;12.78;63.17
2711;BME280;20721;47.402;8.550;2022-09-27T03:04:52;94697;;;12.75;63.46
2711;BME280;20721;47.402;8.550;2022-09-27T03:05:51;94695;;;12.74;63.53
2711;BME280;20721;47.402;8.550;2022-09-27T03:07:50;94703;;;12.76;63.52
2711;BME280;20721;47.402;8.550;2022-09-27T03:08:50;94707;;;12.75;63.68
2711;BME280;20721;47.402;8.550;2022-09-27T03:09:51;94699;;;12.73;63.62
2711;BME280;20721;47.402;8.550;2022-09-27T03:10:51;94701;;;12.61;63.77
2711;BME280;20721;47.402;8.550;2022-09-27T03:11:50;94707;;;12.60;64.01
2711;BME280;20721;47.402;8.550;2022-09-27T03:14:00;94703;;;12.62;64.10
2711;BME280;20721;47.402;8.550;2022-09-27T03:14:51;94701;;;12.64;63.98
2711;BME280;20721;47.402;8.550;2022-09-27T03:15:50;94701;;;12.66;63.93
2711;BME280;20721;47.402;8.550;2022-09-27T03:16:50;94700;;;12.69;63.87
2711;BME280;20721;47.402;8.550;2022-09-27T03:17:50;94700;;;12.61;63.98
2711;BME280;20721;47.402;8.550;2022-09-27T03:18:50;94697;;;12.60;64.02
2711;BME280;20721;47.402;8.550;2022-09-27T03:19:50;94706;;;12.64;63.84
2711;BME280;20721;47.402;8.550;2022-09-27T03:20:51;94708;;;12.68;63.84
2711;BME280;20721;47.402;8.550;2022-09-27T03:21:50;94709;;;12.72;63.97
2711;BME280;20721;47.402;8.550;2022-09-27T03:22:50;94712;;;12.73;63.92
2711;BME280;20721;47.402;8.550;2022-09-27T03:23:50;94706;;;12.76;63.70
2711;BME280;20721;47.402;8.550;2022-09-27T03:24:50;94706;;;12.81;63.50
2711;BME280;20721;47.402;8.550;2022-09-27T03:25:50;94708;;;12.83;63.78
2711;BME280;20721;47.402;8.550;2022-09-27T03:26:50;94711;;;12.87;63.68
2711;BME280;20721;47.402;8.550;2022-09-27T03:28:50;94715;;;12.88;63.46
2711;BME280;20721;47.402;8.550;2022-09-27T03:29:50;94721;;;12.90;63.34
2711;BME280;20721;47.402;8.550;2022-09-27T03:30:50;94724;;;12.92;63.57
2711;BME280;20721;47.402;8.550;2022-09-27T03:31:50;94716;;;12.96;63.45
2711;BME280;20721;47.402;8.550;2022-09-27T03:32:50;94720;;;12.99;63.48
2711;BME280;20721;47.402;8.550;2022-09-27T03:33:50;94723;;;13.02;63.39
2711;BME280;20721;47.402;8.550;2022-09-27T03:34:50;94719;;;13.05;63.55
2711;BME280;20721;47.402;8.550;2022-09-27T03:35:50;94720;;;13.09;63.65
2711;BME280;20721;47.402;8.550;2022-09-27T03:36:50;94726;;;13.08;63.45
2711;BME280;20721;47.402;8.550;2022-09-27T03:37:50;94718;;;13.10;63.43
2711;BME280;20721;47.402;8.550;2022-09-27T03:38:50;94722;;;13.07;63.14
2711;BME280;20721;47.402;8.550;2022-09-27T03:39:50;94732;;;13.00;63.08
2711;BME280;20721;47.402;8.550;2022-09-27T03:40:50;94727;;;12.94;63.34
2711;BME280;20721;47.402;8.550;2022-09-27T03:41:50;94730;;;12.92;63.50
2711;BME280;20721;47.402;8.550;2022-09-27T03:42:50;94736;;;12.91;63.44
2711;BME280;20721;47.402;8.550;2022-09-27T03:43:50;94736;;;12.90;63.67
2711;BME280;20721;47.402;8.550;2022-09-27T03:44:50;94729;;;12.84;63.80
2711;BME280;20721;47.402;8.550;2022-09-27T03:45:50;94733;;;12.83;63.65
2711;BME280;20721;47.402;8.550;2022-09-27T03:46:50;94730;;;12.81;63.76
2711;BME280;20721;47.402;8.550;2022-09-27T03:47:50;94730;;;12.80;63.88
2711;BME280;20721;47.402;8.550;2022-09-27T03:48:50;94732;;;12.79;63.85
2711;BME280;20721;47.402;8.550;2022-09-27T03:49:50;94719;;;12.81;63.89
2711;BME280;20721;47.402;8.550;2022-09-27T03:50:50;94727;;;12.77;63.93
2711;BME280;20721;47.402;8.550;2022-09-27T03:51:50;94730;;;12.79;63.97
2711;BME280;20721;47.402;8.550;2022-09-27T03:52:50;94732;;;12.81;64.10
2711;BME280;20721;47.402;8.550;2022-09-27T03:54:50;94727;;;12.82;64.36
2711;BME280;20721;47.402;8.550;2022-09-27T03:55:50;94728;;;12.83;64.29
2711;BME280;20721;47.402;8.550;2022-09-27T03:56:51;94725;;;12.85;64.25
2711;BME280;20721;47.402;8.550;2022-09-27T04:00:50;94730;;;12.84;64.20
2711;BME280;20721;47.402;8.550;2022-09-27T04:01:50;94736;;;12.79;64.42
2711;BME280;20721;47.402;8.550;2022-09-27T04:02:50;94735;;;12.80;64.39
2711;BME280;20721;47.402;8.550;2022-09-27T04:03:50;94731;;;12.78;64.58
2711;BME280;20721;47.402;8.550;2022-09-27T04:04:50;94734;;;12.77;64.47
2711;BME280;20721;47.402;8.550;2022-09-27T04:06:50;94732;;;12.80;64.36
2711;BME280;20721;47.402;8.550;2022-09-27T04:07:50;94726;;;12.81;64.42
2711;BME280;20721;47.402;8.550;2022-09-27T04:08:50;94726;;;12.84;64.19
2711;BME280;20721;47.402;8.550;2022-09-27T04:09:50;94733;;;12.86;63.90
2711;BME280;20721;47.402;8.550;2022-09-27T04:10:50;94725;;;12.78;63.78
2711;BME280;20721;47.402;8.550;2022-09-27T04:11:50;94732;;;12.72;63.89
2711;BME280;20721;47.402;8.550;2022-09-27T04:12:50;94735;;;12.69;63.99
2711;BME280;20721;47.402;8.550;2022-09-27T04:13:50;94734;;;12.70;63.99
2711;BME280;20721;47.402;8.550;2022-09-27T04:14:50;94735;;;12.73;63.89
2711;BME280;20721;47.402;8.550;2022-09-27T04:15:53;94727;;;12.76;64.14
2711;BME280;20721;47.402;8.550;2022-09-27T04:16:51;94737;;;12.81;64.01
2711;BME280;20721;47.402;8.550;2022-09-27T04:17:50;94730;;;12.80;63.62
2711;BME280;20721;47.402;8.550;2022-09-27T04:18:51;94727;;;12.78;63.65
2711;BME280;20721;47.402;8.550;2022-09-27T04:19:50;94726;;;12.77;63.84
2711;BME280;20721;47.402;8.550;2022-09-27T04:20:50;94732;;;12.79;63.82
2711;BME280;20721;47.402;8.550;2022-09-27T04:21:50;94729;;;12.81;63.80
2711;BME280;20721;47.402;8.550;2022-09-27T04:23:50;94733;;;12.80;63.84
2711;BME280;20721;47.402;8.550;2022-09-27T04:24:50;94731;;;12.73;64.04
2711;BME280;20721;47.402;8.550;2022-09-27T04:25:50;94730;;;12.70;63.92
2711;BME280;20721;47.402;8.550;2022-09-27T04:28:55;94733;;;12.73;63.82
2711;BME280;20721;47.402;8.550;2022-09-27T04:29:51;94733;;;12.63;63.92
2711;BME280;20721;47.402;8.550;2022-09-27T04:30:50;94736;;;12.61;64.12
2711;BME280;20721;47.402;8.550;2022-09-27T04:31:50;94739;;;12.64;64.00
2711;BME280;20721;47.402;8.550;2022-09-27T04:32:50;94736;;;12.63;64.07
2711;BME280;20721;47.402;8.550;2022-09-27T04:33:50;94744;;;12.57;64.25
2711;BME280;20721;47.402;8.550;2022-09-27T04:35:00;94744;;;12.58;64.32
2711;BME280;20721;47.402;8.550;2022-09-27T04:36:00;94741;;;12.61;64.27
2711;BME280;20721;47.402;8.550;2022-09-27T04:36:50;94739;;;12.65;64.35
2711;BME280;20721;47.402;8.550;2022-09-27T04:37:50;94747;;;12.67;63.94
2711;BME280;20721;47.402;8.550;2022-09-27T04:38:51;94744;;;12.57;63.93
2711;BME280;20721;47.402;8.550;2022-09-27T04:39:50;94738;;;12.49;64.25
2711;BME280;20721;47.402;8.550;2022-09-27T04:40:50;94741;;;12.45;64.39
2711;BME280;20721;47.402;8.550;2022-09-27T04:41:50;94739;;;12.38;64.58
2711;BME280;20721;47.402;8.550;2022-09-27T04:42:50;94745;;;12.41;64.54
2711;BME280;20721;47.402;8.550;2022-09-27T04:43:55;94740;;;12.45;64.39
2711;BME280;20721;47.402;8.550;2022-09-27T04:44:50;94744;;;12.50;64.32
2711;BME280;20721;47.402;8.550;2022-09-27T04:45:50;94740;;;12.54;64.24
2711;BME280;20721;47.402;8.550;2022-09-27T04:46:50;94745;;;12.58;64.01
2711;BME280;20721;47.402;8.550;2022-09-27T04:47:50;94747;;;12.61;63.93
2711;BME280;20721;47.402;8.550;2022-09-27T04:48:50;94753;;;12.62;63.68
2711;BME280;20721;47.402;8.550;2022-09-27T04:49:50;94751;;;12.60;63.44
2711;BME280;20721;47.402;8.550;2022-09-27T04:50:55;94755;;;12.59;63.64
2711;BME280;20721;47.402;8.550;2022-09-27T04:52:51;94755;;;12.62;63.55
2711;BME280;20721;47.402;8.550;2022-09-27T04:53:50;94754;;;12.65;63.65
2711;BME280;20721;47.402;8.550;2022-09-27T04:54:50;94754;;;12.66;63.41
2711;BME280;20721;47.402;8.550;2022-09-27T04:56:50;94753;;;12.63;62.96
2711;BME280;20721;47.402;8.550;2022-09-27T04:57:50;94763;;;12.60;63.05
2711;BME280;20721;47.402;8.550;2022-09-27T04:58:50;94760;;;12.50;63.16
2711;BME280;20721;47.402;8.550;2022-09-27T04:59:50;94752;;;12.44;62.86
2711;BME280;20721;47.402;8.550;2022-09-27T05:00:51;94758;;;12.40;63.23
2711;BME280;20721;47.402;8.550;2022-09-27T05:01:50;94756;;;12.38;63.41
2711;BME280;20721;47.402;8.550;2022-09-27T05:02:50;94757;;;12.26;63.63
2711;BME280;20721;47.402;8.550;2022-09-27T05:03:50;94759;;;12.23;63.79
2711;BME280;20721;47.402;8.550;2022-09-27T05:04:50;94758;;;12.24;63.48
2711;BME280;20721;47.402;8.550;2022-09-27T05:05:50;94760;;;12.25;63.53
2711;BME280;20721;47.402;8.550;2022-09-27T05:06:57;94759;;;12.26;63.68
2711;BME280;20721;47.402;8.550;2022-09-27T05:07:50;94760;;;12.31;63.53
2711;BME280;20721;47.402;8.550;2022-09-27T05:08:50;94763;;;12.35;63.65
2711;BME280;20721;47.402;8.550;2022-09-27T05:09:50;94767;;;12.41;63.51
2711;BME280;20721;47.402;8.550;2022-09-27T05:10:50;94765;;;12.44;63.21
2711;BME280;20721;47.402;8.550;2022-09-27T05:11:50;94766;;;12.47;63.15
2711;BME280;20721;47.402;8.550;2022-09-27T05:12:50;94768;;;12.49;62.62
2711;BME280;20721;47.402;8.550;2022-09-27T05:13:50;94767;;;12.47;62.73
2711;BME280;20721;47.402;8.550;2022-09-27T05:14:50;94767;;;12.42;62.16
2711;BME280;20721;47.402;8.550;2022-09-27T05:15:51;94769;;;12.35;62.47
2711;BME280;20721;47.402;8.550;2022-09-27T05:16:52;94772;;;12.29;62.59
2711;BME280;20721;47.402;8.550;2022-09-27T05:17:51;94773;;;12.24;62.29
2711;BME280;20721;47.402;8.550;2022-09-27T05:18:50;94768;;;12.18;62.46
2711;BME280;20721;47.402;8.550;2022-09-27T05:19:51;94779;;;12.13;62.57
2711;BME280;20721;47.402;8.550;2022-09-27T05:20:52;94773;;;12.04;62.56
2711;BME280;20721;47.402;8.550;2022-09-27T05:21:50;94771;;;11.73;63.13
2711;BME280;20721;47.402;8.550;2022-09-27T05:22:51;94781;;;11.63;63.90
2711;BME280;20721;47.402;8.550;2022-09-27T05:23:51;94784;;;11.64;64.16
2711;BME280;20721;47.402;8.550;2022-09-27T05:24:50;94779;;;11.67;64.26
2711;BME280;20721;47.402;8.550;2022-09-27T05:25:54;94775;;;11.69;64.06
2711;BME280;20721;47.402;8.550;2022-09-27T05:26:51;94779;;;11.72;64.10
2711;BME280;20721;47.402;8.550;2022-09-27T05:27:50;94781;;;11.77;63.98
2711;BME280;20721;47.402;8.550;2022-09-27T05:28:51;94784;;;11.82;64.00
2711;BME280;20721;47.402;8.550;2022-09-27T05:29:50;94779;;;11.86;63.80
2711;BME280;20721;47.402;8.550;2022-09-27T05:31:50;94789;;;11.84;63.48
2711;BME280;20721;47.402;8.550;2022-09-27T05:32:51;94789;;;11.85;63.63
2711;BME280;20721;47.402;8.550;2022-09-27T05:33:51;94791;;;11.80;63.71
2711;BME280;20721;47.402;8.550;2022-09-27T05:34:52;94792;;;11.71;63.59
2711;BME280;20721;47.402;8.550;2022-09-27T05:35:53;94792;;;11.61;63.97
2711;BME280;20721;47.402;8.550;2022-09-27T05:36:50;94794;;;11.54;63.91
2711;BME280;20721;47.402;8.550;2022-09-27T05:37:52;94805;;;11.49;64.41
2711;BME280;20721;47.402;8.550;2022-09-27T05:38:50;94804;;;11.52;64.58
2711;BME280;20721;47.402;8.550;2022-09-27T05:39:50;94803;;;11.58;64.44
2711;BME280;20721;47.402;8.550;2022-09-27T05:40:51;94811;;;11.57;63.58
2711;BME280;20721;47.402;8.550;2022-09-27T05:41:50;94815;;;11.59;63.70
2711;BME280;20721;47.402;8.550;2022-09-27T05:42:51;94812;;;11.62;63.55
2711;BME280;20721;47.402;8.550;2022-09-27T05:43:51;94816;;;11.65;63.67
2711;BME280;20721;47.402;8.550;2022-09-27T05:44:51;94812;;;11.70;63.50
2711;BME280;20721;47.402;8.550;2022-09-27T05:45:51;94814;;;11.75;63.14
2711;BME280;20721;47.402;8.550;2022-09-27T05:46:51;94818;;;11.77;62.52
2711;BME280;20721;47.402;8.550;2022-09-27T05:47:51;94821;;;11.72;61.83
2711;BME280;20721;47.402;8.550;2022-09-27T05:48:50;94818;;;11.70;62.29
2711;BME280;20721;47.402;8.550;2022-09-27T05:49:50;94822;;;11.63;62.81
2711;BME280;20721;47.402;8.550;2022-09-27T05:51:50;94822;;;11.65;62.94
2711;BME280;20721;47.402;8.550;2022-09-27T05:52:51;94829;;;11.69;62.65
2711;BME280;20721;47.402;8.550;2022-09-27T05:53:50;94827;;;11.73;62.43
2711;BME280;20721;47.402;8.550;2022-09-27T05:54:50;94831;;;11.70;62.75
2711;BME280;20721;47.402;8.550;2022-09-27T05:55:50;94831;;;11.76;62.67
2711;BME280;20721;47.402;8.550;2022-09-27T05:56:54;94833;;;11.87;62.68
2711;BME280;20721;47.402;8.550;2022-09-27T05:57:58;94835;;;11.96;62.36
2711;BME280;20721;47.402;8.550;2022-09-27T05:58:51;94837;;;11.97;62.01
2711;BME280;20721;47.402;8.550;2022-09-27T05:59:50;94835;;;12.01;62.16
2711;BME280;20721;47.402;8.550;2022-09-27T06:00:50;94835;;;12.08;62.14
2711;BME280;20721;47.402;8.550;2022-09-27T06:01:51;94836;;;12.16;61.93
2711;BME280;20721;47.402;8.550;2022-09-27T06:02:52;94840;;;12.23;61.75
2711;BME280;20721;47.402;8.550;2022-09-27T06:03:52;94843;;;12.30;61.60
2711;BME280;20721;47.402;8.550;2022-09-27T06:04:51;94841;;;12.32;61.18
2711;BME280;20721;47.402;8.550;2022-09-27T06:05:51;94842;;;12.33;61.50
2711;BME280;20721;47.402;8.550;2022-09-27T06:06:50;94843;;;12.35;61.52
2711;BME280;20721;47.402;8.550;2022-09-27T06:07:51;94847;;;12.37;61.54
2711;BME280;20721;47.402;8.550;2022-09-27T06:08:51;94853;;;12.40;61.54
2711;BME280;20721;47.402;8.550;2022-09-27T06:09:50;94853;;;12.42;61.29
2711;BME280;20721;47.402;8.550;2022-09-27T06:10:59;94852;;;12.43;61.32
2711;BME280;20721;47.402;8.550;2022-09-27T06:12:51;94849;;;12.44;61.57
2711;BME280;20721;47.402;8.550;2022-09-27T06:13:50;94851;;;12.47;61.77
2711;BME280;20721;47.402;8.550;2022-09-27T06:14:51;94851;;;12.50;61.97
2711;BME280;20721;47.402;8.550;2022-09-27T06:15:51;94852;;;12.52;61.88
2711;BME280;20721;47.402;8.550;2022-09-27T06:16:53;94856;;;12.54;61.85
2711;BME280;20721;47.402;8.550;2022-09-27T06:17:50;94856;;;12.53;61.86
2711;BME280;20721;47.402;8.550;2022-09-27T06:18:51;94858;;;12.54;61.90
2711;BME280;20721;47.402;8.550;2022-09-27T06:19:50;94861;;;12.53;61.87
2711;BME280;20721;47.402;8.550;2022-09-27T06:20:51;94860;;;12.50;61.94
2711;BME280;20721;47.402;8.550;2022-09-27T06:21:50;94860;;;12.49;61.92
2711;BME280;20721;47.402;8.550;2022-09-27T06:22:52;94868;;;12.46;61.93
2711;BME280;20721;47.402;8.550;2022-09-27T06:23:55;94868;;;12.44;62.24
2711;BME280;20721;47.402;8.550;2022-09-27T06:25:51;94866;;;12.43;62.48
2711;BME280;20721;47.402;8.550;2022-09-27T06:26:50;94864;;;12.42;62.60
2711;BME280;20721;47.402;8.550;2022-09-27T06:28:51;94864;;;12.40;62.53
2711;BME280;20721;47.402;8.550;2022-09-27T06:29:51;94860;;;12.38;62.48
2711;BME280;20721;47.402;8.550;2022-09-27T06:30:51;94859;;;12.35;62.44
2711;BME280;20721;47.402;8.550;2022-09-27T06:32:54;94862;;;12.38;62.27
2711;BME280;20721;47.402;8.550;2022-09-27T06:33:51;94865;;;12.39;62.13
2711;BME280;20721;47.402;8.550;2022-09-27T06:35:51;94871;;;12.38;61.82
2711;BME280;20721;47.402;8.550;2022-09-27T06:36:51;94865;;;12.34;61.69
2711;BME280;20721;47.402;8.550;2022-09-27T06:37:51;94864;;;12.29;60.84
2711;BME280;20721;47.402;8.550;2022-09-27T06:38:50;94867;;;12.22;61.13
2711;BME280;20721;47.402;8.550;2022-09-27T06:39:52;94875;;;12.19;61.59
2711;BME280;20721;47.402;8.550;2022-09-27T06:40:51;94876;;;12.21;61.96
2711;BME280;20721;47.402;8.550;2022-09-27T06:41:52;94883;;;12.23;62.01
2711;BME280;20721;47.402;8.550;2022-09-27T06:42:51;94878;;;12.25;61.88
2711;BME280;20721;47.402;8.550;2022-09-27T06:43:51;94880;;;12.22;61.81
2711;BME280;20721;47.402;8.550;2022-09-27T06:44:51;94881;;;12.25;61.54
2711;BME280;20721;47.402;8.550;2022-09-27T06:45:51;94880;;;12.26;61.21
2711;BME280;20721;47.402;8.550;2022-09-27T06:46:51;94880;;;12.27;61.36
2711;BME280;20721;47.402;8.550;2022-09-27T06:47:51;94885;;;12.28;60.84